Main page
METAR-TAF:

METAR-TAF

Airports :

Antonio B. Won Pat International Airport

Hagåtña, Guam, United States

latitude: 13-29N, longitude: 144-48E, elevation: 91 m

Current weather observation

The report was made 51 minutes ago, at 11:54 UTC
Wind 5 kt from the East/Northeast
Temperature 28°C
Humidity 89%
Pressure 1013 hPa
Visibility: 16.1 km
Clear sky

METAR: PGUM 181154Z 06005KT 10SM CLR 28/26 A2990 RMK AO2 SLP115 T02780261 10311 20272 51011

Time: 22:45 (12:45 UTC)

Forecast

The report was made 1 hour and 25 minutes ago, at 11:20 UTC
Forecast valid from 18 at 12 UTC to 19 at 18 UTC
Wind 7 kt from the East/Northeast
Visibility: 10 km
Few clouds at a height of 2000 ft
Scattered clouds at a height of 8000 ft
showers in vicinity

TAF: PGUM 181120Z 1812/1918 06007KT P6SM VCSH FEW020 SCT080

Weather observations and forecasts of more than 4000 airports (METAR and TAF reports).

The available stations are represented by yellow and red dots on the map.

Hover mouse over dot to see the name of the station.

Then click to see weather observations and forecasts.

To change the map : click on the green buttons with a black cross to zoom in, on the green button with a dash to zoom out, or on the green arrows for adjacent maps.


METAR-TAF: